createdAt,value
2022-10-11T00:01:51.507Z,98193.03
2022-10-11T00:04:56.517Z,98203.69
2022-10-11T00:08:00.124Z,98219.91
2022-10-11T00:11:04.789Z,98223.22
2022-10-11T00:14:07.850Z,98241.72
2022-10-11T00:17:13.077Z,98244.88
2022-10-11T00:20:16.769Z,98252.09
2022-10-11T00:23:19.988Z,98260.56
2022-10-11T00:26:23.690Z,98261.16
2022-10-11T00:29:26.936Z,98274.66
2022-10-11T00:32:32.087Z,98283.84
2022-10-11T00:35:35.641Z,98286.69
2022-10-11T00:38:41.288Z,98289.25
2022-10-11T00:41:45.336Z,98298.94
2022-10-11T00:44:50.472Z,98317.47
2022-10-11T00:47:55.953Z,98330.78
2022-10-11T00:51:03.447Z,98337.84
2022-10-11T00:54:13.414Z,98342.28
2022-10-11T00:57:21.634Z,98348.56
2022-10-11T01:00:26.797Z,98350.50
2022-10-11T01:03:41.225Z,98364.75
2022-10-11T01:06:48.465Z,98369.25
2022-10-11T01:09:57.326Z,98374.00
2022-10-11T01:13:13.298Z,98383.91
2022-10-11T01:16:25.413Z,98390.31
2022-10-11T01:19:50.949Z,98402.38
2022-10-11T01:23:41.181Z,98410.66
2022-10-11T01:27:37.855Z,98416.44
2022-10-11T01:30:46.848Z,98420.88
2022-10-11T01:34:03.027Z,98431.78
2022-10-11T01:37:19.771Z,98442.06
2022-10-11T01:40:26.217Z,98447.50
2022-10-11T01:43:33.744Z,98458.22
2022-10-11T01:46:42.404Z,98456.06
2022-10-11T01:49:53.963Z,98476.25
2022-10-11T01:53:03.752Z,98469.75
2022-10-11T01:56:21.648Z,98470.88
2022-10-11T01:59:42.969Z,98473.34
2022-10-11T02:03:12.313Z,98465.75
2022-10-11T02:06:24.340Z,98464.13
2022-10-11T02:09:39.373Z,98464.13
2022-10-11T02:12:54.737Z,98470.03
2022-10-11T02:16:03.540Z,98477.28
2022-10-11T02:19:21.177Z,98475.63
2022-10-11T02:22:38.035Z,98474.00
2022-10-11T02:25:53.473Z,98468.72
2022-10-11T02:29:03.588Z,98470.69
2022-10-11T02:32:35.493Z,98470.69
2022-10-11T02:36:02.426Z,98475.44
2022-10-11T02:39:26.015Z,98468.66
2022-10-11T02:42:39.786Z,98477.41
2022-10-11T02:45:55.939Z,98474.91
2022-10-11T02:49:01.423Z,98480.50
2022-10-11T02:52:13.285Z,98478.84
2022-10-11T02:55:20.540Z,98482.47
2022-10-11T02:58:36.426Z,98484.41
2022-10-11T03:01:41.153Z,98488.03
2022-10-11T03:04:46.487Z,98491.66
2022-10-11T03:08:00.125Z,98497.22
2022-10-11T03:11:04.845Z,98502.50
2022-10-11T03:14:08.673Z,98515.50
2022-10-11T03:17:37.348Z,98518.31
2022-10-11T03:21:16.707Z,98524.56
2022-10-11T03:24:37.945Z,98534.41
2022-10-11T03:27:44.182Z,98538.00
2022-10-11T03:30:49.904Z,98544.25
2022-10-11T03:33:53.999Z,98545.25
2022-10-11T03:36:57.717Z,98547.19
2022-10-11T03:40:09.618Z,98551.94
2022-10-11T03:43:17.758Z,98557.53
2022-10-11T03:46:24.183Z,98560.00
2022-10-11T03:49:32.399Z,98583.00
2022-10-11T03:52:43.169Z,98584.00
2022-10-11T03:56:18.385Z,98588.22
2022-10-11T03:59:42.068Z,98599.72
2022-10-11T04:02:50.870Z,98603.31
2022-10-11T04:05:58.039Z,98604.47
2022-10-11T04:09:01.751Z,98601.66
2022-10-11T04:12:55.488Z,98608.09
2022-10-11T04:16:17.963Z,98603.94
2022-10-11T04:19:24.563Z,98606.94
2022-10-11T04:22:28.213Z,98610.56
2022-10-11T04:25:32.977Z,98613.50
2022-10-11T04:28:44.394Z,98605.19
2022-10-11T04:32:07.815Z,98607.16
2022-10-11T04:35:19.457Z,98613.03
2022-10-11T04:38:30.392Z,98608.03
2022-10-11T04:41:36.046Z,98609.03
2022-10-11T04:44:44.180Z,98619.84
2022-10-11T04:47:48.901Z,98626.78
2022-10-11T04:50:53.085Z,98628.44
2022-10-11T04:53:56.672Z,98625.16
2022-10-11T04:57:00.100Z,98622.00
2022-10-11T05:00:06.137Z,98608.84
2022-10-11T05:03:09.207Z,98607.75
2022-10-11T05:06:13.419Z,98606.09
2022-10-11T05:09:24.781Z,98611.94
2022-10-11T05:12:28.264Z,98611.56
2022-10-11T05:15:33.160Z,98602.59
2022-10-11T05:18:38.821Z,98607.97
2022-10-11T05:21:43.458Z,98609.50
2022-10-11T05:24:47.564Z,98605.75
2022-10-11T05:27:52.295Z,98600.19
2022-10-11T05:30:58.482Z,98591.09
2022-10-11T05:34:01.698Z,98595.97
2022-10-11T05:37:04.772Z,98599.84
2022-10-11T05:40:09.574Z,98589.06
2022-10-11T05:43:18.393Z,98609.38
2022-10-11T05:46:23.401Z,98604.13
2022-10-11T05:49:26.406Z,98610.09
2022-10-11T05:52:29.435Z,98613.16
2022-10-11T05:55:37.100Z,98612.31
2022-10-11T05:58:40.918Z,98617.88
2022-10-11T06:01:45.352Z,98619.00
2022-10-11T06:04:48.354Z,98618.69
2022-10-11T06:07:58.081Z,98623.44
2022-10-11T06:11:13.463Z,98624.38
2022-10-11T06:14:19.178Z,98634.22
2022-10-11T06:17:28.691Z,98630.22
2022-10-11T06:20:34.446Z,98638.41
2022-10-11T06:23:39.509Z,98641.72
2022-10-11T06:26:44.713Z,98656.28
2022-10-11T06:29:47.949Z,98642.47
2022-10-11T06:32:53.368Z,98651.34
2022-10-11T06:35:59.893Z,98662.66
2022-10-11T06:39:03.175Z,98666.69
2022-10-11T06:42:07.098Z,98672.06
2022-10-11T06:45:11.874Z,98670.84
2022-10-11T06:48:40.885Z,98689.38
2022-10-11T06:51:59.571Z,98695.88
2022-10-11T06:55:05.871Z,98705.25
2022-10-11T07:02:13.713Z,98705.50
2022-10-11T07:05:21.381Z,98710.09
2022-10-11T07:08:25.953Z,98699.28
2022-10-11T07:11:31.350Z,98703.72
2022-10-11T07:14:35.120Z,98704.94
2022-10-11T07:17:40.274Z,98689.84
2022-10-11T07:21:00.499Z,98677.78
2022-10-11T07:24:41.813Z,98680.69
2022-10-11T07:27:45.623Z,98663.00
2022-10-11T07:30:49.453Z,98646.94
2022-10-11T07:33:52.883Z,98626.19
2022-10-11T07:36:59.659Z,98621.91
2022-10-11T07:40:03.082Z,98620.81
2022-10-11T07:43:06.285Z,98608.16
2022-10-11T07:46:12.151Z,98598.19
2022-10-11T07:49:16.507Z,98587.09
2022-10-11T07:52:23.853Z,98570.59
2022-10-11T07:55:30.450Z,98557.91
2022-10-11T07:58:34.148Z,98537.91
2022-10-11T08:01:37.873Z,98516.53
2022-10-11T08:04:41.209Z,98467.75
2022-10-11T08:07:49.230Z,98427.16
2022-10-11T08:10:53.159Z,98400.91
2022-10-11T08:13:56.850Z,98383.16
2022-10-11T08:17:00.205Z,98362.47
2022-10-11T08:20:10.062Z,98341.59
2022-10-11T08:23:17.640Z,98320.56
2022-10-11T08:26:21.625Z,98304.13
2022-10-11T08:29:29.577Z,98297.28
2022-10-11T08:32:33.079Z,98275.22
2022-10-11T08:35:37.785Z,98245.59
2022-10-11T08:38:44.759Z,98239.34
2022-10-11T08:41:55.617Z,98243.97
2022-10-11T08:45:11.101Z,98242.34
2022-10-11T08:48:20.139Z,98251.06
2022-10-11T08:51:30.793Z,98248.75
2022-10-11T08:54:45.270Z,98248.06
2022-10-11T08:57:57.035Z,98249.66
2022-10-11T09:01:07.289Z,98258.25
2022-10-11T09:04:17.852Z,98253.63
2022-10-11T09:07:49.461Z,98253.28
2022-10-11T09:16:24.193Z,98256.09
2022-10-11T09:19:48.993Z,98259.91
2022-10-11T09:22:59.843Z,98257.94
2022-10-11T09:26:07.859Z,98256.31
2022-10-11T09:29:22.402Z,98253.03
2022-10-11T09:32:29.763Z,98256.97
2022-10-11T09:35:40.975Z,98267.47
2022-10-11T09:38:49.910Z,98264.38
2022-10-11T09:42:00.046Z,98262.25
2022-10-11T09:45:16.009Z,98268.03
2022-10-11T09:48:21.967Z,98259.97
2022-10-11T09:51:28.588Z,98262.94
2022-10-11T09:54:41.757Z,98260.00
2022-10-11T09:57:55.878Z,98263.63
2022-10-11T10:01:07.653Z,98272.19
2022-10-11T10:04:13.202Z,98279.75
2022-10-11T10:07:16.839Z,98291.47
2022-10-11T10:10:39.842Z,98307.00
2022-10-11T10:13:46.038Z,98307.50
2022-10-11T10:17:01.554Z,98320.53
2022-10-11T10:20:05.732Z,98317.72
2022-10-11T10:23:12.008Z,98317.56
2022-10-11T10:26:17.412Z,98311.78
2022-10-11T10:29:21.173Z,98315.38
2022-10-11T10:32:31.956Z,98316.72
2022-10-11T10:35:39.529Z,98319.69
2022-10-11T10:38:52.312Z,98328.28
2022-10-11T10:41:56.301Z,98323.00
2022-10-11T10:45:00.077Z,98322.84
2022-10-11T10:48:19.479Z,98323.81
2022-10-11T10:51:33.285Z,98318.72
2022-10-11T10:54:47.124Z,98322.34
2022-10-11T10:58:05.532Z,98319.53
2022-10-11T11:01:14.603Z,98320.84
2022-10-11T11:04:28.241Z,98320.03
2022-10-11T11:07:37.255Z,98325.63
2022-10-11T11:10:49.783Z,98323.16
2022-10-11T11:13:58.094Z,98327.59
2022-10-11T11:17:09.915Z,98323.66
2022-10-11T11:20:32.821Z,98324.94
2022-10-11T11:23:45.457Z,98318.16
2022-10-11T11:26:55.088Z,98318.28
2022-10-11T11:30:04.539Z,98329.28
2022-10-11T11:33:17.828Z,98326.00
2022-10-11T11:36:37.932Z,98334.75
2022-10-11T11:39:44.710Z,98333.22
2022-10-11T11:42:51.924Z,98342.34
2022-10-11T11:45:58.954Z,98342.91
2022-10-11T11:49:09.672Z,98336.94
2022-10-11T11:52:26.295Z,98336.41
2022-10-11T11:55:33.833Z,98335.50
2022-10-11T11:58:45.313Z,98334.19
2022-10-11T12:01:54.893Z,98335.69
2022-10-11T12:04:58.417Z,98333.75
2022-10-11T12:08:06.056Z,98325.84
2022-10-11T12:11:21.476Z,98316.66
2022-10-11T12:14:37.421Z,98315.25
2022-10-11T12:18:17.273Z,98311.53
2022-10-11T12:21:29.850Z,98310.38
2022-10-11T12:24:54.446Z,98307.88
2022-10-11T12:27:58.514Z,98319.50
2022-10-11T12:31:17.771Z,98324.09
2022-10-11T12:34:34.997Z,98330.75
2022-10-11T12:38:06.536Z,98327.22
2022-10-11T12:41:50.321Z,98319.06
2022-10-11T12:45:31.219Z,98319.13
2022-10-11T12:48:51.668Z,98327.88
2022-10-11T12:52:00.906Z,98325.81
2022-10-11T12:55:14.427Z,98321.19
2022-10-11T12:58:38.808Z,98329.91
2022-10-11T13:01:51.235Z,98318.41
2022-10-11T13:04:54.457Z,98315.09
2022-10-11T13:08:00.208Z,98318.19
2022-10-11T13:11:06.493Z,98311.38
2022-10-11T13:14:16.024Z,98305.59
2022-10-11T13:17:25.798Z,98307.19
2022-10-11T13:20:33.359Z,98315.16
2022-10-11T13:23:39.772Z,98304.81
2022-10-11T13:26:44.890Z,98308.50
2022-10-11T13:29:51.601Z,98311.25
2022-10-11T13:32:54.989Z,98306.50
2022-10-11T13:35:57.898Z,98306.41
2022-10-11T13:39:02.191Z,98311.31
2022-10-11T13:42:09.783Z,98310.00
2022-10-11T13:45:16.632Z,98310.34
2022-10-11T13:48:19.505Z,98304.94
2022-10-11T13:51:29.862Z,98305.41
2022-10-11T13:55:07.801Z,98308.69
2022-10-11T13:58:18.800Z,98306.94
2022-10-11T14:01:26.886Z,98304.94
2022-10-11T14:04:40.832Z,98313.75
2022-10-11T14:07:43.656Z,98304.44
2022-10-11T14:10:47.488Z,98306.25
2022-10-11T14:13:50.769Z,98306.56
2022-10-11T14:16:58.648Z,98296.84
2022-10-11T14:20:15.494Z,98299.75
2022-10-11T14:23:18.360Z,98299.16
2022-10-11T14:26:22.322Z,98299.25
2022-10-11T14:29:28.374Z,98295.59
2022-10-11T14:32:35.182Z,98300.88
2022-10-11T14:35:38.208Z,98304.19
2022-10-11T14:38:41.131Z,98306.84
2022-10-11T14:41:44.127Z,98311.88
2022-10-11T14:44:46.957Z,98315.34
2022-10-11T14:47:51.964Z,98307.75
2022-10-11T14:50:59.131Z,98313.59
2022-10-11T14:54:01.997Z,98305.34
2022-10-11T14:57:05.712Z,98308.88
2022-10-11T15:00:17.264Z,98311.84
2022-10-11T15:03:21.468Z,98302.44
2022-10-11T15:06:28.378Z,98301.28
2022-10-11T15:09:31.730Z,98298.81
2022-10-11T15:12:34.541Z,98306.09
2022-10-11T15:15:40.955Z,98307.09
2022-10-11T15:18:50.995Z,98307.75
2022-10-11T15:21:54.305Z,98305.25
2022-10-11T15:24:57.176Z,98318.00
2022-10-11T15:28:00.197Z,98303.16
2022-10-11T15:31:03.274Z,98302.19
2022-10-11T15:34:07.510Z,98296.91
2022-10-11T15:37:10.376Z,98304.19
2022-10-11T15:40:21.998Z,98298.94
2022-10-11T15:43:25.346Z,98298.09
2022-10-11T15:46:28.239Z,98292.66
2022-10-11T15:49:32.491Z,98290.19
2022-10-11T15:52:35.330Z,98284.53
2022-10-11T15:55:40.198Z,98274.81
2022-10-11T15:58:43.449Z,98278.28
2022-10-11T16:01:47.017Z,98275.81
2022-10-11T16:04:51.266Z,98269.19
2022-10-11T16:07:55.311Z,98269.38
2022-10-11T16:10:58.264Z,98257.97
2022-10-11T16:14:01.104Z,98259.25
2022-10-11T16:17:05.717Z,98252.66
2022-10-11T16:20:10.631Z,98250.50
2022-10-11T16:23:15.319Z,98251.31
2022-10-11T16:26:18.563Z,98245.38
2022-10-11T16:29:22.057Z,98251.31
2022-10-11T16:32:25.500Z,98257.84
2022-10-11T16:35:32.487Z,98244.44
2022-10-11T16:38:35.533Z,98246.53
2022-10-11T16:41:38.817Z,98248.69
2022-10-11T16:44:41.814Z,98245.28
2022-10-11T16:47:45.239Z,98244.34
2022-10-11T16:50:49.411Z,98242.38
2022-10-11T16:53:52.614Z,98247.91
2022-10-11T16:56:55.571Z,98249.75
2022-10-11T16:59:58.550Z,98242.41
2022-10-11T17:03:01.543Z,98238.81
2022-10-11T17:06:07.065Z,98237.31
2022-10-11T17:09:11.374Z,98241.59
2022-10-11T17:12:16.123Z,98249.34
2022-10-11T17:15:19.103Z,98261.78
2022-10-11T17:18:21.986Z,98257.56
2022-10-11T17:21:26.445Z,98261.31
2022-10-11T17:24:29.531Z,98266.56
2022-10-11T17:27:33.025Z,98269.75
2022-10-11T17:30:35.887Z,98273.56
2022-10-11T17:33:38.913Z,98269.41
2022-10-11T17:36:43.868Z,98274.88
2022-10-11T17:39:46.712Z,98270.63
2022-10-11T17:42:49.648Z,98276.13
2022-10-11T17:45:56.109Z,98270.03
2022-10-11T17:48:59.890Z,98262.09
2022-10-11T17:52:04.316Z,98270.03
2022-10-11T17:55:07.479Z,98265.63
2022-10-11T17:58:10.522Z,98270.50
2022-10-11T18:01:16.000Z,98274.84
2022-10-11T18:04:21.732Z,98268.75
2022-10-11T18:07:26.004Z,98265.75
2022-10-11T18:10:28.895Z,98257.66
2022-10-11T18:13:31.810Z,98262.91
2022-10-11T18:16:36.742Z,98254.06
2022-10-11T18:19:39.615Z,98249.59
2022-10-11T18:22:43.835Z,98257.28
2022-10-11T18:25:49.144Z,98262.00
2022-10-11T18:28:53.787Z,98254.69
2022-10-11T18:31:56.847Z,98248.78
2022-10-11T18:34:59.849Z,98236.94
2022-10-11T18:38:04.717Z,98238.28
2022-10-11T18:41:09.523Z,98245.66
2022-10-11T18:44:15.611Z,98246.00
2022-10-11T18:47:18.548Z,98235.78
2022-10-11T18:50:21.669Z,98233.38
2022-10-11T18:53:25.946Z,98230.97
2022-10-11T18:56:31.199Z,98229.84
2022-10-11T18:59:34.297Z,98230.09
2022-10-11T19:02:37.186Z,98234.16
2022-10-11T19:05:40.100Z,98236.13
2022-10-11T19:08:44.636Z,98237.31
2022-10-11T19:11:47.489Z,98242.72
2022-10-11T19:14:50.356Z,98245.56
2022-10-11T19:17:53.229Z,98244.19
2022-10-11T19:20:56.074Z,98233.31
2022-10-11T19:24:00.338Z,98236.75
2022-10-11T19:27:03.288Z,98229.84
2022-10-11T19:30:07.343Z,98226.16
2022-10-11T19:33:11.552Z,98220.25
2022-10-11T19:36:15.091Z,98222.88
2022-10-11T19:39:19.986Z,98219.81
2022-10-11T19:42:22.817Z,98227.41
2022-10-11T19:45:25.663Z,98236.94
2022-10-11T19:48:29.006Z,98234.28
2022-10-11T19:51:34.902Z,98238.44
2022-10-11T19:54:39.123Z,98242.72
2022-10-11T19:57:42.016Z,98243.13
2022-10-11T20:00:44.957Z,98245.59
2022-10-11T20:03:50.648Z,98242.72
2022-10-11T20:06:53.557Z,98242.69
2022-10-11T20:09:57.794Z,98247.53
2022-10-11T20:13:00.688Z,98245.88
2022-10-11T20:16:06.521Z,98254.00
2022-10-11T20:19:09.368Z,98250.16
2022-10-11T20:22:12.228Z,98252.09
2022-10-11T20:25:16.597Z,98250.56
2022-10-11T20:28:19.500Z,98248.22
2022-10-11T20:31:25.462Z,98253.31
2022-10-11T20:34:28.807Z,98248.50
2022-10-11T20:37:31.999Z,98249.59
2022-10-11T20:40:40.414Z,98248.63
2022-10-11T20:43:44.068Z,98257.06
2022-10-11T20:46:47.182Z,98260.06
2022-10-11T20:49:50.071Z,98269.16
2022-10-11T20:52:53.037Z,98263.66
2022-10-11T20:55:57.594Z,98266.38
2022-10-11T20:59:00.781Z,98258.94
2022-10-11T21:02:03.629Z,98264.44
2022-10-11T21:05:07.697Z,98261.41
2022-10-11T21:08:10.725Z,98260.16
2022-10-11T21:11:15.161Z,98254.16
2022-10-11T21:14:18.039Z,98255.00
2022-10-11T21:17:20.995Z,98261.09
2022-10-11T21:20:24.260Z,98268.78
2022-10-11T21:23:27.140Z,98268.53
2022-10-11T21:26:32.091Z,98276.56
2022-10-11T21:29:34.967Z,98291.19
2022-10-11T21:32:38.099Z,98296.69
2022-10-11T21:35:41.381Z,98311.03
2022-10-11T21:38:44.507Z,98313.25
2022-10-11T21:41:48.729Z,98329.94
2022-10-11T21:44:51.593Z,98333.91
2022-10-11T21:47:54.616Z,98339.03
2022-10-11T21:50:57.521Z,98346.31
2022-10-11T21:54:01.182Z,98347.69
2022-10-11T21:57:05.433Z,98357.13
2022-10-11T22:00:09.412Z,98360.72
2022-10-11T22:03:16.173Z,98357.50
2022-10-11T22:06:19.100Z,98363.66
2022-10-11T22:09:22.361Z,98370.88
2022-10-11T22:12:26.835Z,98371.25
2022-10-11T22:15:29.695Z,98376.88
2022-10-11T22:18:33.818Z,98374.13
2022-10-11T22:21:40.132Z,98374.16
2022-10-11T22:24:45.486Z,98371.75
2022-10-11T22:27:49.717Z,98376.19
2022-10-11T22:30:52.629Z,98378.94
2022-10-11T22:33:56.273Z,98378.34
2022-10-11T22:36:59.291Z,98391.16
2022-10-11T22:40:02.176Z,98387.69
2022-10-11T22:43:06.486Z,98394.50
2022-10-11T22:46:09.925Z,98390.88
2022-10-11T22:49:12.878Z,98380.59
2022-10-11T22:52:15.945Z,98383.31
2022-10-11T22:55:20.241Z,98379.78
2022-10-11T22:58:24.831Z,98375.47
2022-10-11T23:01:27.831Z,98371.78
2022-10-11T23:04:30.740Z,98369.06
2022-10-11T23:07:33.779Z,98366.31
2022-10-11T23:10:39.250Z,98367.13
2022-10-11T23:13:43.645Z,98355.50
2022-10-11T23:16:46.540Z,98353.56
2022-10-11T23:19:49.511Z,98347.91
2022-10-11T23:22:52.379Z,98343.56
2022-10-11T23:26:02.272Z,98339.22
2022-10-11T23:29:06.505Z,98340.19
2022-10-11T23:32:10.081Z,98345.75
2022-10-11T23:35:13.004Z,98345.88
2022-10-11T23:38:15.938Z,98347.41
2022-10-11T23:41:18.941Z,98348.75
2022-10-11T23:44:23.189Z,98339.66
2022-10-11T23:47:26.153Z,98339.56
2022-10-11T23:50:29.073Z,98334.34
2022-10-11T23:53:31.980Z,98338.38
2022-10-11T23:56:34.943Z,98345.66
2022-10-11T23:59:39.163Z,98341.16
